sensor_id;sensor_type;location;lat;lon;timestamp;P1;durP1;ratioP1;P2;durP2;ratioP2
21095;SDS011;10706;49.036;12.112;2023-04-09T00:02:21;17.93;;;8.00;;
21095;SDS011;10706;49.036;12.112;2023-04-09T00:04:47;19.37;;;7.80;;
21095;SDS011;10706;49.036;12.112;2023-04-09T00:07:12;17.87;;;7.27;;
21095;SDS011;10706;49.036;12.112;2023-04-09T00:09:38;17.70;;;7.50;;
21095;SDS011;10706;49.036;12.112;2023-04-09T00:12:04;16.93;;;7.40;;
21095;SDS011;10706;49.036;12.112;2023-04-09T00:14:30;19.70;;;8.37;;
21095;SDS011;10706;49.036;12.112;2023-04-09T00:16:55;20.83;;;9.27;;
21095;SDS011;10706;49.036;12.112;2023-04-09T00:19:21;17.00;;;7.60;;
21095;SDS011;10706;49.036;12.112;2023-04-09T00:21:47;19.07;;;8.17;;
21095;SDS011;10706;49.036;12.112;2023-04-09T00:24:13;18.27;;;8.33;;
21095;SDS011;10706;49.036;12.112;2023-04-09T00:26:38;18.63;;;8.43;;
21095;SDS011;10706;49.036;12.112;2023-04-09T00:29:04;17.77;;;7.57;;
21095;SDS011;10706;49.036;12.112;2023-04-09T00:31:30;16.93;;;7.97;;
21095;SDS011;10706;49.036;12.112;2023-04-09T00:33:56;18.57;;;7.77;;
21095;SDS011;10706;49.036;12.112;2023-04-09T00:36:22;18.80;;;7.93;;
21095;SDS011;10706;49.036;12.112;2023-04-09T00:38:49;19.00;;;7.80;;
21095;SDS011;10706;49.036;12.112;2023-04-09T00:41:16;20.27;;;8.70;;
21095;SDS011;10706;49.036;12.112;2023-04-09T00:43:42;22.57;;;9.30;;
21095;SDS011;10706;49.036;12.112;2023-04-09T00:46:07;18.70;;;9.33;;
21095;SDS011;10706;49.036;12.112;2023-04-09T00:48:33;18.53;;;8.67;;
21095;SDS011;10706;49.036;12.112;2023-04-09T00:50:59;19.97;;;8.17;;
21095;SDS011;10706;49.036;12.112;2023-04-09T00:53:25;20.40;;;8.07;;
21095;SDS011;10706;49.036;12.112;2023-04-09T00:55:51;21.90;;;8.67;;
21095;SDS011;10706;49.036;12.112;2023-04-09T00:58:17;16.97;;;8.00;;
21095;SDS011;10706;49.036;12.112;2023-04-09T01:00:43;17.23;;;7.60;;
21095;SDS011;10706;49.036;12.112;2023-04-09T01:03:09;17.03;;;8.10;;
21095;SDS011;10706;49.036;12.112;2023-04-09T01:08:31;18.93;;;8.37;;
21095;SDS011;10706;49.036;12.112;2023-04-09T01:11:31;18.97;;;7.77;;
21095;SDS011;10706;49.036;12.112;2023-04-09T01:14:07;20.93;;;8.10;;
21095;SDS011;10706;49.036;12.112;2023-04-09T01:17:05;16.93;;;7.03;;
21095;SDS011;10706;49.036;12.112;2023-04-09T01:19:58;17.47;;;7.97;;
21095;SDS011;10706;49.036;12.112;2023-04-09T01:22:56;20.07;;;8.17;;
21095;SDS011;10706;49.036;12.112;2023-04-09T01:28:30;21.83;;;9.20;;
21095;SDS011;10706;49.036;12.112;2023-04-09T01:31:03;19.50;;;8.13;;
21095;SDS011;10706;49.036;12.112;2023-04-09T01:33:37;20.20;;;8.67;;
21095;SDS011;10706;49.036;12.112;2023-04-09T01:36:04;21.50;;;9.03;;
21095;SDS011;10706;49.036;12.112;2023-04-09T01:38:32;18.87;;;7.87;;
21095;SDS011;10706;49.036;12.112;2023-04-09T01:41:01;21.53;;;8.93;;
21095;SDS011;10706;49.036;12.112;2023-04-09T01:43:29;20.37;;;9.57;;
21095;SDS011;10706;49.036;12.112;2023-04-09T01:45:56;21.63;;;9.17;;
21095;SDS011;10706;49.036;12.112;2023-04-09T01:48:24;19.60;;;8.40;;
21095;SDS011;10706;49.036;12.112;2023-04-09T01:50:50;20.40;;;9.03;;
21095;SDS011;10706;49.036;12.112;2023-04-09T01:53:16;16.77;;;7.57;;
21095;SDS011;10706;49.036;12.112;2023-04-09T01:55:42;21.47;;;9.00;;
21095;SDS011;10706;49.036;12.112;2023-04-09T01:58:08;18.57;;;7.90;;
21095;SDS011;10706;49.036;12.112;2023-04-09T02:00:34;19.30;;;8.40;;
21095;SDS011;10706;49.036;12.112;2023-04-09T02:03:09;20.67;;;9.30;;
21095;SDS011;10706;49.036;12.112;2023-04-09T02:05:47;19.20;;;7.93;;
21095;SDS011;10706;49.036;12.112;2023-04-09T02:08:31;21.07;;;7.97;;
21095;SDS011;10706;49.036;12.112;2023-04-09T02:10:59;17.50;;;7.73;;
21095;SDS011;10706;49.036;12.112;2023-04-09T02:13:30;18.10;;;7.80;;
21095;SDS011;10706;49.036;12.112;2023-04-09T02:15:58;17.37;;;8.33;;
21095;SDS011;10706;49.036;12.112;2023-04-09T02:18:28;21.33;;;8.57;;
21095;SDS011;10706;49.036;12.112;2023-04-09T02:20:55;21.17;;;8.50;;
21095;SDS011;10706;49.036;12.112;2023-04-09T02:23:22;22.17;;;9.10;;
21095;SDS011;10706;49.036;12.112;2023-04-09T02:25:48;23.20;;;8.90;;
21095;SDS011;10706;49.036;12.112;2023-04-09T02:28:15;21.97;;;9.13;;
21095;SDS011;10706;49.036;12.112;2023-04-09T02:30:40;21.93;;;8.47;;
21095;SDS011;10706;49.036;12.112;2023-04-09T02:33:06;20.30;;;8.73;;
21095;SDS011;10706;49.036;12.112;2023-04-09T02:35:32;23.23;;;8.73;;
21095;SDS011;10706;49.036;12.112;2023-04-09T02:37:58;22.53;;;9.70;;
21095;SDS011;10706;49.036;12.112;2023-04-09T02:40:24;20.63;;;8.83;;
21095;SDS011;10706;49.036;12.112;2023-04-09T02:42:50;26.80;;;9.27;;
21095;SDS011;10706;49.036;12.112;2023-04-09T02:45:17;20.47;;;8.67;;
21095;SDS011;10706;49.036;12.112;2023-04-09T02:47:43;23.33;;;9.77;;
21095;SDS011;10706;49.036;12.112;2023-04-09T02:50:09;25.93;;;10.40;;
21095;SDS011;10706;49.036;12.112;2023-04-09T02:52:34;23.23;;;9.53;;
21095;SDS011;10706;49.036;12.112;2023-04-09T02:55:00;24.77;;;10.93;;
21095;SDS011;10706;49.036;12.112;2023-04-09T02:57:26;21.83;;;9.60;;
21095;SDS011;10706;49.036;12.112;2023-04-09T02:59:52;22.67;;;10.20;;
21095;SDS011;10706;49.036;12.112;2023-04-09T03:02:17;20.87;;;9.53;;
21095;SDS011;10706;49.036;12.112;2023-04-09T03:04:43;24.07;;;10.93;;
21095;SDS011;10706;49.036;12.112;2023-04-09T03:07:09;24.23;;;10.23;;
21095;SDS011;10706;49.036;12.112;2023-04-09T03:09:35;24.10;;;10.83;;
21095;SDS011;10706;49.036;12.112;2023-04-09T03:12:01;25.50;;;10.80;;
21095;SDS011;10706;49.036;12.112;2023-04-09T03:14:27;23.30;;;10.27;;
21095;SDS011;10706;49.036;12.112;2023-04-09T03:16:52;23.20;;;10.17;;
21095;SDS011;10706;49.036;12.112;2023-04-09T03:19:18;22.97;;;10.00;;
21095;SDS011;10706;49.036;12.112;2023-04-09T03:21:44;24.30;;;9.80;;
21095;SDS011;10706;49.036;12.112;2023-04-09T03:24:10;22.13;;;9.40;;
21095;SDS011;10706;49.036;12.112;2023-04-09T03:26:36;19.87;;;8.77;;
21095;SDS011;10706;49.036;12.112;2023-04-09T03:29:02;22.43;;;9.40;;
21095;SDS011;10706;49.036;12.112;2023-04-09T03:31:29;24.13;;;9.90;;
21095;SDS011;10706;49.036;12.112;2023-04-09T03:33:58;23.17;;;9.80;;
21095;SDS011;10706;49.036;12.112;2023-04-09T03:36:24;28.40;;;10.77;;
21095;SDS011;10706;49.036;12.112;2023-04-09T03:38:51;22.07;;;8.83;;
21095;SDS011;10706;49.036;12.112;2023-04-09T03:41:17;19.47;;;8.80;;
21095;SDS011;10706;49.036;12.112;2023-04-09T03:43:43;20.43;;;8.80;;
21095;SDS011;10706;49.036;12.112;2023-04-09T03:46:15;21.13;;;9.30;;
21095;SDS011;10706;49.036;12.112;2023-04-09T03:48:42;21.87;;;9.50;;
21095;SDS011;10706;49.036;12.112;2023-04-09T03:51:12;20.00;;;9.07;;
21095;SDS011;10706;49.036;12.112;2023-04-09T03:53:39;19.43;;;8.23;;
21095;SDS011;10706;49.036;12.112;2023-04-09T03:56:06;23.53;;;9.77;;
21095;SDS011;10706;49.036;12.112;2023-04-09T03:58:32;23.30;;;9.30;;
21095;SDS011;10706;49.036;12.112;2023-04-09T04:00:58;25.63;;;9.97;;
21095;SDS011;10706;49.036;12.112;2023-04-09T04:03:25;23.60;;;8.90;;
21095;SDS011;10706;49.036;12.112;2023-04-09T04:05:51;24.47;;;9.40;;
21095;SDS011;10706;49.036;12.112;2023-04-09T04:08:17;24.83;;;9.60;;
21095;SDS011;10706;49.036;12.112;2023-04-09T04:10:43;22.53;;;9.10;;
21095;SDS011;10706;49.036;12.112;2023-04-09T04:13:09;22.07;;;9.07;;
21095;SDS011;10706;49.036;12.112;2023-04-09T04:15:41;24.93;;;9.80;;
21095;SDS011;10706;49.036;12.112;2023-04-09T04:18:10;22.17;;;8.93;;
21095;SDS011;10706;49.036;12.112;2023-04-09T04:20:36;21.70;;;9.73;;
21095;SDS011;10706;49.036;12.112;2023-04-09T04:23:03;21.70;;;8.90;;
21095;SDS011;10706;49.036;12.112;2023-04-09T04:25:29;24.43;;;9.83;;
21095;SDS011;10706;49.036;12.112;2023-04-09T04:27:55;22.53;;;8.93;;
21095;SDS011;10706;49.036;12.112;2023-04-09T04:30:21;21.13;;;9.13;;
21095;SDS011;10706;49.036;12.112;2023-04-09T04:32:47;24.47;;;10.87;;
21095;SDS011;10706;49.036;12.112;2023-04-09T04:35:14;24.63;;;9.93;;
21095;SDS011;10706;49.036;12.112;2023-04-09T04:37:40;22.23;;;10.50;;
21095;SDS011;10706;49.036;12.112;2023-04-09T04:40:06;24.47;;;10.63;;
21095;SDS011;10706;49.036;12.112;2023-04-09T04:42:33;24.17;;;9.63;;
21095;SDS011;10706;49.036;12.112;2023-04-09T04:44:59;22.60;;;9.73;;
21095;SDS011;10706;49.036;12.112;2023-04-09T04:47:25;22.23;;;9.67;;
21095;SDS011;10706;49.036;12.112;2023-04-09T04:49:51;24.17;;;10.47;;
21095;SDS011;10706;49.036;12.112;2023-04-09T04:52:17;26.43;;;11.63;;
21095;SDS011;10706;49.036;12.112;2023-04-09T04:54:42;25.67;;;11.10;;
21095;SDS011;10706;49.036;12.112;2023-04-09T04:57:08;21.63;;;9.77;;
21095;SDS011;10706;49.036;12.112;2023-04-09T04:59:37;25.03;;;10.70;;
21095;SDS011;10706;49.036;12.112;2023-04-09T05:02:07;23.40;;;9.80;;
21095;SDS011;10706;49.036;12.112;2023-04-09T05:04:32;23.27;;;10.10;;
21095;SDS011;10706;49.036;12.112;2023-04-09T05:06:58;28.83;;;11.90;;
21095;SDS011;10706;49.036;12.112;2023-04-09T05:09:24;26.47;;;11.80;;
21095;SDS011;10706;49.036;12.112;2023-04-09T05:11:50;30.03;;;12.07;;
21095;SDS011;10706;49.036;12.112;2023-04-09T05:14:16;28.63;;;11.47;;
21095;SDS011;10706;49.036;12.112;2023-04-09T05:16:41;31.67;;;12.37;;
21095;SDS011;10706;49.036;12.112;2023-04-09T05:19:07;34.17;;;13.03;;
21095;SDS011;10706;49.036;12.112;2023-04-09T05:21:33;33.17;;;13.10;;
21095;SDS011;10706;49.036;12.112;2023-04-09T05:23:58;29.67;;;12.53;;
21095;SDS011;10706;49.036;12.112;2023-04-09T05:26:24;31.40;;;14.10;;
21095;SDS011;10706;49.036;12.112;2023-04-09T05:28:50;27.67;;;12.20;;
21095;SDS011;10706;49.036;12.112;2023-04-09T05:31:17;33.50;;;13.27;;
21095;SDS011;10706;49.036;12.112;2023-04-09T05:33:43;34.63;;;13.90;;
21095;SDS011;10706;49.036;12.112;2023-04-09T05:36:13;28.47;;;12.60;;
21095;SDS011;10706;49.036;12.112;2023-04-09T05:38:43;37.30;;;15.70;;
21095;SDS011;10706;49.036;12.112;2023-04-09T05:41:10;41.53;;;17.40;;
21095;SDS011;10706;49.036;12.112;2023-04-09T05:43:37;31.77;;;13.90;;
21095;SDS011;10706;49.036;12.112;2023-04-09T05:46:02;29.53;;;12.50;;
21095;SDS011;10706;49.036;12.112;2023-04-09T05:48:28;31.03;;;13.37;;
21095;SDS011;10706;49.036;12.112;2023-04-09T05:50:54;32.17;;;13.30;;
21095;SDS011;10706;49.036;12.112;2023-04-09T05:53:20;34.60;;;13.10;;
21095;SDS011;10706;49.036;12.112;2023-04-09T05:55:46;29.23;;;12.63;;
21095;SDS011;10706;49.036;12.112;2023-04-09T05:58:13;31.10;;;13.77;;
21095;SDS011;10706;49.036;12.112;2023-04-09T06:00:40;28.03;;;12.10;;
21095;SDS011;10706;49.036;12.112;2023-04-09T06:03:07;27.10;;;12.20;;
21095;SDS011;10706;49.036;12.112;2023-04-09T06:05:33;29.90;;;11.53;;
21095;SDS011;10706;49.036;12.112;2023-04-09T06:07:59;28.33;;;11.47;;
21095;SDS011;10706;49.036;12.112;2023-04-09T06:10:25;27.63;;;12.40;;
21095;SDS011;10706;49.036;12.112;2023-04-09T06:12:51;29.93;;;12.13;;
21095;SDS011;10706;49.036;12.112;2023-04-09T06:15:17;26.27;;;11.80;;
21095;SDS011;10706;49.036;12.112;2023-04-09T06:17:43;22.83;;;10.73;;
21095;SDS011;10706;49.036;12.112;2023-04-09T06:20:09;31.20;;;13.37;;
21095;SDS011;10706;49.036;12.112;2023-04-09T06:22:35;27.07;;;12.73;;
21095;SDS011;10706;49.036;12.112;2023-04-09T06:25:01;29.40;;;13.63;;
21095;SDS011;10706;49.036;12.112;2023-04-09T06:27:27;25.87;;;11.40;;
21095;SDS011;10706;49.036;12.112;2023-04-09T06:29:53;27.03;;;11.90;;
21095;SDS011;10706;49.036;12.112;2023-04-09T06:32:19;28.60;;;13.40;;
21095;SDS011;10706;49.036;12.112;2023-04-09T06:34:45;28.80;;;12.63;;
21095;SDS011;10706;49.036;12.112;2023-04-09T06:37:12;27.33;;;12.50;;
21095;SDS011;10706;49.036;12.112;2023-04-09T06:39:37;27.57;;;12.20;;
21095;SDS011;10706;49.036;12.112;2023-04-09T06:42:04;33.37;;;13.17;;
21095;SDS011;10706;49.036;12.112;2023-04-09T06:44:30;27.27;;;11.97;;
21095;SDS011;10706;49.036;12.112;2023-04-09T06:46:59;29.70;;;11.80;;
21095;SDS011;10706;49.036;12.112;2023-04-09T06:49:26;25.87;;;12.27;;
21095;SDS011;10706;49.036;12.112;2023-04-09T06:51:51;28.57;;;12.10;;
21095;SDS011;10706;49.036;12.112;2023-04-09T06:54:18;24.83;;;11.80;;
21095;SDS011;10706;49.036;12.112;2023-04-09T06:56:44;27.97;;;12.60;;
21095;SDS011;10706;49.036;12.112;2023-04-09T06:59:10;30.67;;;13.63;;
21095;SDS011;10706;49.036;12.112;2023-04-09T07:01:36;29.43;;;13.70;;
21095;SDS011;10706;49.036;12.112;2023-04-09T07:04:02;29.70;;;13.83;;
21095;SDS011;10706;49.036;12.112;2023-04-09T07:06:28;27.73;;;12.63;;
21095;SDS011;10706;49.036;12.112;2023-04-09T07:08:54;29.97;;;12.97;;
21095;SDS011;10706;49.036;12.112;2023-04-09T07:11:20;26.53;;;12.20;;
21095;SDS011;10706;49.036;12.112;2023-04-09T07:13:46;30.87;;;13.87;;
21095;SDS011;10706;49.036;12.112;2023-04-09T07:16:12;33.70;;;14.73;;
21095;SDS011;10706;49.036;12.112;2023-04-09T07:18:37;33.67;;;15.97;;
21095;SDS011;10706;49.036;12.112;2023-04-09T07:21:03;37.07;;;15.83;;
21095;SDS011;10706;49.036;12.112;2023-04-09T07:23:29;33.43;;;15.27;;
21095;SDS011;10706;49.036;12.112;2023-04-09T07:26:00;32.30;;;15.17;;
21095;SDS011;10706;49.036;12.112;2023-04-09T07:28:29;34.90;;;15.07;;
21095;SDS011;10706;49.036;12.112;2023-04-09T07:30:55;33.57;;;14.93;;
21095;SDS011;10706;49.036;12.112;2023-04-09T07:33:21;38.23;;;16.93;;
21095;SDS011;10706;49.036;12.112;2023-04-09T07:35:47;38.03;;;16.67;;
21095;SDS011;10706;49.036;12.112;2023-04-09T07:38:13;35.17;;;15.33;;
21095;SDS011;10706;49.036;12.112;2023-04-09T07:40:38;40.03;;;16.87;;
21095;SDS011;10706;49.036;12.112;2023-04-09T07:43:04;35.07;;;15.77;;
21095;SDS011;10706;49.036;12.112;2023-04-09T07:45:30;31.73;;;14.33;;
21095;SDS011;10706;49.036;12.112;2023-04-09T07:47:56;33.53;;;16.20;;
21095;SDS011;10706;49.036;12.112;2023-04-09T07:50:22;33.20;;;14.43;;
21095;SDS011;10706;49.036;12.112;2023-04-09T07:52:48;33.67;;;15.80;;
21095;SDS011;10706;49.036;12.112;2023-04-09T07:55:13;31.90;;;14.17;;
21095;SDS011;10706;49.036;12.112;2023-04-09T07:57:39;31.30;;;14.67;;
21095;SDS011;10706;49.036;12.112;2023-04-09T08:00:07;34.23;;;15.67;;
21095;SDS011;10706;49.036;12.112;2023-04-09T08:02:33;31.40;;;13.80;;
21095;SDS011;10706;49.036;12.112;2023-04-09T08:04:59;34.07;;;15.20;;
21095;SDS011;10706;49.036;12.112;2023-04-09T08:07:25;30.30;;;14.13;;
21095;SDS011;10706;49.036;12.112;2023-04-09T08:09:50;31.50;;;15.10;;
21095;SDS011;10706;49.036;12.112;2023-04-09T08:12:16;33.83;;;14.53;;
21095;SDS011;10706;49.036;12.112;2023-04-09T08:14:42;32.50;;;14.57;;
21095;SDS011;10706;49.036;12.112;2023-04-09T08:17:07;33.13;;;14.97;;
21095;SDS011;10706;49.036;12.112;2023-04-09T08:19:33;34.33;;;15.57;;
21095;SDS011;10706;49.036;12.112;2023-04-09T08:21:59;33.47;;;14.70;;
21095;SDS011;10706;49.036;12.112;2023-04-09T08:24:25;32.90;;;15.87;;
21095;SDS011;10706;49.036;12.112;2023-04-09T08:26:52;35.83;;;15.40;;
21095;SDS011;10706;49.036;12.112;2023-04-09T08:29:18;53.07;;;25.23;;
21095;SDS011;10706;49.036;12.112;2023-04-09T08:31:44;55.23;;;26.77;;
21095;SDS011;10706;49.036;12.112;2023-04-09T08:34:09;45.70;;;22.63;;
21095;SDS011;10706;49.036;12.112;2023-04-09T08:36:36;35.50;;;17.53;;
21095;SDS011;10706;49.036;12.112;2023-04-09T08:39:02;32.43;;;15.63;;
21095;SDS011;10706;49.036;12.112;2023-04-09T08:41:28;33.03;;;15.57;;
21095;SDS011;10706;49.036;12.112;2023-04-09T08:43:54;30.20;;;14.97;;
21095;SDS011;10706;49.036;12.112;2023-04-09T08:46:22;29.63;;;14.60;;
21095;SDS011;10706;49.036;12.112;2023-04-09T08:48:48;29.30;;;14.07;;
21095;SDS011;10706;49.036;12.112;2023-04-09T08:51:16;30.13;;;13.70;;
21095;SDS011;10706;49.036;12.112;2023-04-09T08:53:44;29.23;;;14.33;;
21095;SDS011;10706;49.036;12.112;2023-04-09T08:56:21;29.90;;;13.90;;
21095;SDS011;10706;49.036;12.112;2023-04-09T08:58:47;28.83;;;13.17;;
21095;SDS011;10706;49.036;12.112;2023-04-09T09:04:00;31.60;;;13.67;;
21095;SDS011;10706;49.036;12.112;2023-04-09T09:06:31;26.93;;;12.27;;
21095;SDS011;10706;49.036;12.112;2023-04-09T09:11:34;33.47;;;14.37;;
21095;SDS011;10706;49.036;12.112;2023-04-09T09:14:06;26.30;;;13.37;;
21095;SDS011;10706;49.036;12.112;2023-04-09T09:16:33;27.13;;;13.10;;
21095;SDS011;10706;49.036;12.112;2023-04-09T09:19:04;32.17;;;14.13;;
21095;SDS011;10706;49.036;12.112;2023-04-09T09:21:30;28.10;;;13.23;;
21095;SDS011;10706;49.036;12.112;2023-04-09T09:23:57;27.27;;;12.80;;
21095;SDS011;10706;49.036;12.112;2023-04-09T09:28:52;30.50;;;13.70;;
21095;SDS011;10706;49.036;12.112;2023-04-09T09:31:19;27.57;;;13.17;;
21095;SDS011;10706;49.036;12.112;2023-04-09T09:33:46;26.90;;;13.00;;
21095;SDS011;10706;49.036;12.112;2023-04-09T09:36:14;27.53;;;12.57;;
21095;SDS011;10706;49.036;12.112;2023-04-09T09:38:57;24.63;;;11.77;;
21095;SDS011;10706;49.036;12.112;2023-04-09T09:41:27;25.83;;;12.23;;
21095;SDS011;10706;49.036;12.112;2023-04-09T09:43:53;28.03;;;12.93;;
21095;SDS011;10706;49.036;12.112;2023-04-09T09:46:19;26.17;;;11.93;;
21095;SDS011;10706;49.036;12.112;2023-04-09T09:48:46;27.20;;;12.00;;
21095;SDS011;10706;49.036;12.112;2023-04-09T09:51:14;23.70;;;11.25;;
21095;SDS011;10706;49.036;12.112;2023-04-09T09:53:42;22.25;;;10.63;;
21095;SDS011;10706;49.036;12.112;2023-04-09T09:56:11;22.25;;;11.00;;
21095;SDS011;10706;49.036;12.112;2023-04-09T09:58:44;21.55;;;10.15;;
21095;SDS011;10706;49.036;12.112;2023-04-09T10:01:28;20.70;;;9.77;;
21095;SDS011;10706;49.036;12.112;2023-04-09T10:03:55;17.55;;;8.48;;
21095;SDS011;10706;49.036;12.112;2023-04-09T10:06:23;20.23;;;9.60;;
21095;SDS011;10706;49.036;12.112;2023-04-09T10:08:51;19.33;;;9.40;;
21095;SDS011;10706;49.036;12.112;2023-04-09T10:11:20;23.47;;;9.23;;
21095;SDS011;10706;49.036;12.112;2023-04-09T10:13:52;21.73;;;9.97;;
21095;SDS011;10706;49.036;12.112;2023-04-09T10:16:25;21.40;;;9.40;;
21095;SDS011;10706;49.036;12.112;2023-04-09T10:18:52;20.33;;;9.03;;
21095;SDS011;10706;49.036;12.112;2023-04-09T10:23:52;21.35;;;9.02;;
21095;SDS011;10706;49.036;12.112;2023-04-09T10:26:19;19.63;;;8.43;;
21095;SDS011;10706;49.036;12.112;2023-04-09T10:28:46;19.40;;;8.98;;
21095;SDS011;10706;49.036;12.112;2023-04-09T10:31:26;20.52;;;9.95;;
21095;SDS011;10706;49.036;12.112;2023-04-09T10:33:52;21.83;;;9.27;;
21095;SDS011;10706;49.036;12.112;2023-04-09T10:36:18;19.33;;;8.55;;
21095;SDS011;10706;49.036;12.112;2023-04-09T10:38:46;19.00;;;9.45;;
21095;SDS011;10706;49.036;12.112;2023-04-09T10:41:20;21.13;;;8.95;;
21095;SDS011;10706;49.036;12.112;2023-04-09T10:43:51;21.88;;;9.45;;
21095;SDS011;10706;49.036;12.112;2023-04-09T10:46:24;20.65;;;9.48;;
21095;SDS011;10706;49.036;12.112;2023-04-09T10:49:14;22.08;;;9.60;;
21095;SDS011;10706;49.036;12.112;2023-04-09T10:51:52;21.83;;;9.70;;
21095;SDS011;10706;49.036;12.112;2023-04-09T10:59:32;19.83;;;8.82;;
21095;SDS011;10706;49.036;12.112;2023-04-09T11:02:00;19.35;;;8.88;;
21095;SDS011;10706;49.036;12.112;2023-04-09T11:07:21;20.10;;;8.27;;
21095;SDS011;10706;49.036;12.112;2023-04-09T11:09:49;20.50;;;8.90;;
21095;SDS011;10706;49.036;12.112;2023-04-09T11:12:15;19.75;;;8.55;;
21095;SDS011;10706;49.036;12.112;2023-04-09T11:14:40;19.80;;;9.43;;
21095;SDS011;10706;49.036;12.112;2023-04-09T11:17:06;23.55;;;10.48;;
21095;SDS011;10706;49.036;12.112;2023-04-09T11:19:32;18.50;;;8.70;;
21095;SDS011;10706;49.036;12.112;2023-04-09T11:21:58;21.48;;;10.18;;
21095;SDS011;10706;49.036;12.112;2023-04-09T11:24:24;18.50;;;8.15;;
21095;SDS011;10706;49.036;12.112;2023-04-09T11:26:50;18.52;;;7.88;;
21095;SDS011;10706;49.036;12.112;2023-04-09T11:29:16;17.80;;;8.63;;
21095;SDS011;10706;49.036;12.112;2023-04-09T11:31:43;17.13;;;8.02;;
21095;SDS011;10706;49.036;12.112;2023-04-09T11:34:09;18.48;;;8.75;;
21095;SDS011;10706;49.036;12.112;2023-04-09T11:36:38;20.10;;;8.93;;
21095;SDS011;10706;49.036;12.112;2023-04-09T11:39:04;19.73;;;9.10;;
21095;SDS011;10706;49.036;12.112;2023-04-09T11:41:31;20.33;;;9.48;;
21095;SDS011;10706;49.036;12.112;2023-04-09T11:44:04;19.50;;;9.00;;
21095;SDS011;10706;49.036;12.112;2023-04-09T11:46:33;20.85;;;9.13;;
21095;SDS011;10706;49.036;12.112;2023-04-09T11:49:00;20.80;;;8.75;;
21095;SDS011;10706;49.036;12.112;2023-04-09T11:51:26;19.42;;;9.23;;
21095;SDS011;10706;49.036;12.112;2023-04-09T11:53:55;18.85;;;9.07;;
21095;SDS011;10706;49.036;12.112;2023-04-09T11:56:32;18.73;;;8.25;;
21095;SDS011;10706;49.036;12.112;2023-04-09T11:59:00;19.58;;;8.73;;
21095;SDS011;10706;49.036;12.112;2023-04-09T12:01:30;18.65;;;8.25;;
21095;SDS011;10706;49.036;12.112;2023-04-09T12:03:57;18.40;;;8.57;;
21095;SDS011;10706;49.036;12.112;2023-04-09T12:06:24;21.40;;;8.80;;
21095;SDS011;10706;49.036;12.112;2023-04-09T12:08:55;18.95;;;8.32;;
21095;SDS011;10706;49.036;12.112;2023-04-09T12:11:29;17.58;;;8.15;;
21095;SDS011;10706;49.036;12.112;2023-04-09T12:14:00;18.83;;;8.57;;
21095;SDS011;10706;49.036;12.112;2023-04-09T12:16:28;17.90;;;8.45;;
21095;SDS011;10706;49.036;12.112;2023-04-09T12:18:59;20.02;;;8.63;;
21095;SDS011;10706;49.036;12.112;2023-04-09T12:24:21;17.80;;;8.50;;
21095;SDS011;10706;49.036;12.112;2023-04-09T12:26:49;19.02;;;8.75;;
21095;SDS011;10706;49.036;12.112;2023-04-09T12:29:16;17.38;;;7.70;;
21095;SDS011;10706;49.036;12.112;2023-04-09T12:31:44;20.73;;;8.20;;
21095;SDS011;10706;49.036;12.112;2023-04-09T12:34:11;16.90;;;7.95;;
21095;SDS011;10706;49.036;12.112;2023-04-09T12:36:37;16.90;;;7.97;;
21095;SDS011;10706;49.036;12.112;2023-04-09T12:39:05;17.42;;;7.65;;
21095;SDS011;10706;49.036;12.112;2023-04-09T12:41:32;18.27;;;8.38;;
21095;SDS011;10706;49.036;12.112;2023-04-09T12:43:58;17.83;;;8.50;;
21095;SDS011;10706;49.036;12.112;2023-04-09T12:46:24;17.58;;;8.15;;
21095;SDS011;10706;49.036;12.112;2023-04-09T12:48:51;18.77;;;8.55;;
21095;SDS011;10706;49.036;12.112;2023-04-09T12:51:17;21.17;;;9.50;;
21095;SDS011;10706;49.036;12.112;2023-04-09T12:53:42;17.60;;;7.75;;
21095;SDS011;10706;49.036;12.112;2023-04-09T12:56:08;18.33;;;8.43;;
21095;SDS011;10706;49.036;12.112;2023-04-09T12:58:34;16.10;;;7.45;;
21095;SDS011;10706;49.036;12.112;2023-04-09T13:01:00;15.75;;;7.13;;
21095;SDS011;10706;49.036;12.112;2023-04-09T13:03:28;15.18;;;6.70;;
21095;SDS011;10706;49.036;12.112;2023-04-09T13:05:54;13.23;;;5.55;;
21095;SDS011;10706;49.036;12.112;2023-04-09T13:08:20;16.25;;;6.65;;
21095;SDS011;10706;49.036;12.112;2023-04-09T13:10:45;16.00;;;6.43;;
21095;SDS011;10706;49.036;12.112;2023-04-09T13:13:11;15.15;;;7.10;;
21095;SDS011;10706;49.036;12.112;2023-04-09T13:15:37;15.02;;;6.72;;
21095;SDS011;10706;49.036;12.112;2023-04-09T13:18:07;14.57;;;6.72;;
21095;SDS011;10706;49.036;12.112;2023-04-09T13:20:33;13.43;;;6.30;;
21095;SDS011;10706;49.036;12.112;2023-04-09T13:22:59;13.40;;;5.75;;
21095;SDS011;10706;49.036;12.112;2023-04-09T13:25:24;14.13;;;5.93;;
21095;SDS011;10706;49.036;12.112;2023-04-09T13:27:50;13.88;;;6.20;;
21095;SDS011;10706;49.036;12.112;2023-04-09T13:30:16;11.30;;;5.18;;
21095;SDS011;10706;49.036;12.112;2023-04-09T13:32:42;14.13;;;6.72;;
21095;SDS011;10706;49.036;12.112;2023-04-09T13:35:07;13.18;;;6.25;;
21095;SDS011;10706;49.036;12.112;2023-04-09T13:37:34;13.32;;;5.78;;
21095;SDS011;10706;49.036;12.112;2023-04-09T13:40:00;13.80;;;6.43;;
21095;SDS011;10706;49.036;12.112;2023-04-09T13:42:26;13.02;;;5.47;;
21095;SDS011;10706;49.036;12.112;2023-04-09T13:44:52;14.02;;;6.53;;
21095;SDS011;10706;49.036;12.112;2023-04-09T13:47:18;14.55;;;6.25;;
21095;SDS011;10706;49.036;12.112;2023-04-09T13:49:45;12.73;;;5.70;;
21095;SDS011;10706;49.036;12.112;2023-04-09T13:52:11;12.40;;;5.47;;
21095;SDS011;10706;49.036;12.112;2023-04-09T13:54:38;12.57;;;5.60;;
21095;SDS011;10706;49.036;12.112;2023-04-09T13:57:04;14.13;;;6.10;;
21095;SDS011;10706;49.036;12.112;2023-04-09T13:59:30;12.60;;;5.65;;
21095;SDS011;10706;49.036;12.112;2023-04-09T14:01:56;10.82;;;4.63;;
21095;SDS011;10706;49.036;12.112;2023-04-09T14:04:21;13.70;;;6.40;;
21095;SDS011;10706;49.036;12.112;2023-04-09T14:06:47;15.77;;;6.28;;
21095;SDS011;10706;49.036;12.112;2023-04-09T14:09:13;14.55;;;6.22;;
21095;SDS011;10706;49.036;12.112;2023-04-09T14:11:39;14.15;;;5.97;;
21095;SDS011;10706;49.036;12.112;2023-04-09T14:14:05;12.90;;;5.60;;
21095;SDS011;10706;49.036;12.112;2023-04-09T14:16:31;14.32;;;6.45;;
21095;SDS011;10706;49.036;12.112;2023-04-09T14:18:57;13.10;;;5.90;;
21095;SDS011;10706;49.036;12.112;2023-04-09T14:21:27;13.38;;;6.15;;
21095;SDS011;10706;49.036;12.112;2023-04-09T14:23:53;13.75;;;5.65;;
21095;SDS011;10706;49.036;12.112;2023-04-09T14:26:19;15.20;;;6.35;;
21095;SDS011;10706;49.036;12.112;2023-04-09T14:28:45;15.57;;;6.40;;
21095;SDS011;10706;49.036;12.112;2023-04-09T14:31:11;16.45;;;5.65;;
21095;SDS011;10706;49.036;12.112;2023-04-09T14:33:38;15.23;;;6.13;;
21095;SDS011;10706;49.036;12.112;2023-04-09T14:36:05;15.68;;;6.50;;
21095;SDS011;10706;49.036;12.112;2023-04-09T14:38:32;13.02;;;5.90;;
21095;SDS011;10706;49.036;12.112;2023-04-09T14:40:58;14.65;;;6.47;;
21095;SDS011;10706;49.036;12.112;2023-04-09T14:43:24;13.90;;;5.65;;
21095;SDS011;10706;49.036;12.112;2023-04-09T14:45:51;13.65;;;6.13;;